createdAt,value
2023-04-05T00:01:50.331Z,12.63
2023-04-05T00:04:21.485Z,11.20
2023-04-05T00:06:54.482Z,11.60
2023-04-05T00:09:24.923Z,10.02
2023-04-05T00:11:57.858Z,11.43
2023-04-05T00:14:28.164Z,13.73
2023-04-05T00:16:58.526Z,12.38
2023-04-05T00:19:28.885Z,10.80
2023-04-05T00:21:59.234Z,11.85
2023-04-05T00:24:29.690Z,14.32
2023-04-05T00:27:03.043Z,11.52
2023-04-05T00:29:33.371Z,11.35
2023-04-05T00:32:04.935Z,9.43
2023-04-05T00:34:35.761Z,11.70
2023-04-05T00:37:06.164Z,9.85
2023-04-05T00:39:36.659Z,10.27
2023-04-05T00:42:09.905Z,10.07
2023-04-05T00:44:40.237Z,11.70
2023-04-05T00:47:10.894Z,12.23
2023-04-05T00:49:41.536Z,10.25
2023-04-05T00:52:13.256Z,15.68
2023-04-05T00:54:43.652Z,9.55
2023-04-05T00:57:16.839Z,10.27
2023-04-05T00:59:47.223Z,10.50
2023-04-05T01:02:21.334Z,14.93
2023-04-05T01:04:54.927Z,11.70
2023-04-05T01:07:28.229Z,10.05
2023-04-05T01:10:01.155Z,12.40
2023-04-05T01:12:35.207Z,12.07
2023-04-05T01:15:05.929Z,10.80
2023-04-05T01:17:39.581Z,12.23
2023-04-05T01:20:12.221Z,9.25
2023-04-05T01:22:53.093Z,14.45
2023-04-05T01:25:38.875Z,10.65
2023-04-05T01:28:24.165Z,13.48
2023-04-05T01:31:02.281Z,13.15
2023-04-05T01:33:38.006Z,10.45
2023-04-05T01:36:12.692Z,10.60
2023-04-05T01:38:44.058Z,9.93
2023-04-05T01:41:14.933Z,12.95
2023-04-05T01:43:46.814Z,11.32
2023-04-05T01:46:19.891Z,10.25
2023-04-05T01:48:50.186Z,12.52
2023-04-05T01:51:21.595Z,13.40
2023-04-05T01:53:51.896Z,11.52
2023-04-05T01:56:22.369Z,13.93
2023-04-05T01:58:52.702Z,14.65
2023-04-05T02:01:25.860Z,14.63
2023-04-05T02:03:56.312Z,11.27
2023-04-05T02:06:27.146Z,10.98
2023-04-05T02:08:57.508Z,15.13
2023-04-05T02:11:27.874Z,12.15
2023-04-05T02:13:58.190Z,11.20
2023-04-05T02:16:33.492Z,11.45
2023-04-05T02:19:04.354Z,11.43
2023-04-05T02:21:36.039Z,10.73
2023-04-05T02:26:36.412Z,13.52
2023-04-05T02:29:06.722Z,11.57
2023-04-05T02:31:39.817Z,11.07
2023-04-05T02:34:11.846Z,12.23
2023-04-05T02:36:42.261Z,11.88
2023-04-05T02:39:13.596Z,14.15
2023-04-05T02:41:43.955Z,14.25
2023-04-05T02:44:14.255Z,12.90
2023-04-05T02:46:47.181Z,11.90
2023-04-05T02:49:17.481Z,12.40
2023-04-05T02:51:47.803Z,12.98
2023-04-05T02:54:18.062Z,12.55
2023-04-05T02:56:50.165Z,9.95
2023-04-05T02:59:20.955Z,12.20
2023-04-05T03:01:53.981Z,12.25
2023-04-05T03:04:27.019Z,14.02
2023-04-05T03:06:57.864Z,14.68
2023-04-05T03:09:29.425Z,12.23
2023-04-05T03:11:59.782Z,12.82
2023-04-05T03:14:30.164Z,11.88
2023-04-05T03:17:03.328Z,12.50
2023-04-05T03:19:33.653Z,13.73
2023-04-05T03:22:03.988Z,11.38
2023-04-05T03:24:34.280Z,13.18
2023-04-05T03:27:06.421Z,14.07
2023-04-05T03:29:36.749Z,17.33
2023-04-05T03:32:12.180Z,10.73
2023-04-05T03:34:42.593Z,11.10
2023-04-05T03:37:13.375Z,12.40
2023-04-05T03:39:43.731Z,9.10
2023-04-05T03:42:14.090Z,12.63
2023-04-05T03:44:44.431Z,15.85
2023-04-05T03:47:17.503Z,13.10
2023-04-05T03:49:47.787Z,11.23
2023-04-05T03:52:18.124Z,12.77
2023-04-05T03:54:48.508Z,12.23
2023-04-05T03:57:21.319Z,14.07
2023-04-05T03:59:51.731Z,15.20
2023-04-05T04:02:27.926Z,10.80
2023-04-05T04:04:58.587Z,12.45
2023-04-05T04:07:29.177Z,13.05
2023-04-05T04:09:59.488Z,12.50
2023-04-05T04:12:30.095Z,13.25
2023-04-05T04:15:00.701Z,10.82
2023-04-05T04:17:34.716Z,10.85
2023-04-05T04:20:07.953Z,13.32
2023-04-05T04:22:38.932Z,11.48
2023-04-05T04:25:10.551Z,12.00
2023-04-05T04:27:42.252Z,11.57
2023-04-05T04:30:13.416Z,13.35
2023-04-05T04:32:55.957Z,13.95
2023-04-05T04:35:28.134Z,17.00
2023-04-05T04:38:00.624Z,10.98
2023-04-05T04:40:38.900Z,12.52
2023-04-05T04:43:10.444Z,11.20
2023-04-05T04:45:41.071Z,13.50
2023-04-05T04:48:14.338Z,13.38
2023-04-05T04:50:44.727Z,11.55
2023-04-05T04:53:17.653Z,11.02
2023-04-05T04:55:50.202Z,14.60
2023-04-05T04:58:20.590Z,15.55
2023-04-05T05:00:53.285Z,13.50
2023-04-05T05:03:26.481Z,11.57
2023-04-05T05:05:57.220Z,14.88
2023-04-05T05:08:27.562Z,11.07
2023-04-05T05:10:57.860Z,14.93
2023-04-05T05:13:28.294Z,15.52
2023-04-05T05:16:00.632Z,16.27
2023-04-05T05:18:33.622Z,11.43
2023-04-05T05:21:03.982Z,10.20
2023-04-05T05:23:34.356Z,18.77
2023-04-05T05:26:04.634Z,13.82
2023-04-05T05:28:35.019Z,13.38
2023-04-05T05:31:06.972Z,12.43
2023-04-05T05:33:39.943Z,10.25
2023-04-05T05:36:10.720Z,16.05
2023-04-05T05:38:43.287Z,13.00
2023-04-05T05:41:13.781Z,13.13
2023-04-05T05:43:44.059Z,12.98
2023-04-05T05:46:14.411Z,11.23
2023-04-05T05:48:47.510Z,10.98
2023-04-05T05:51:18.327Z,16.58
2023-04-05T05:53:48.650Z,13.40
2023-04-05T05:56:19.105Z,13.23
2023-04-05T05:58:49.529Z,15.07
2023-04-05T06:01:23.140Z,15.52
2023-04-05T06:03:56.237Z,15.27
2023-04-05T06:06:27.123Z,15.63
2023-04-05T06:08:57.484Z,16.73
2023-04-05T06:11:27.744Z,17.63
2023-04-05T06:13:58.130Z,19.58
2023-04-05T06:16:29.373Z,18.48
2023-04-05T06:19:02.441Z,16.00
2023-04-05T06:21:32.777Z,17.85
2023-04-05T06:24:03.158Z,17.40
2023-04-05T06:26:34.347Z,19.58
2023-04-05T06:29:04.995Z,17.35
2023-04-05T06:31:36.392Z,17.38
2023-04-05T06:34:09.644Z,15.73
2023-04-05T06:36:40.037Z,14.70
2023-04-05T06:39:10.558Z,17.27
2023-04-05T06:41:40.941Z,15.00
2023-04-05T06:44:11.330Z,21.13
2023-04-05T06:46:41.619Z,20.15
2023-04-05T06:49:14.536Z,15.50
2023-04-05T06:51:44.834Z,25.20
2023-04-05T06:54:15.475Z,17.67
2023-04-05T06:56:45.791Z,17.20
2023-04-05T06:59:16.317Z,17.63
2023-04-05T07:01:46.846Z,17.73
2023-04-05T07:04:19.986Z,18.52
2023-04-05T07:06:50.688Z,18.58
2023-04-05T07:09:22.488Z,15.32
2023-04-05T07:11:52.809Z,18.90
2023-04-05T07:14:23.125Z,16.25
2023-04-05T07:16:53.765Z,21.95
2023-04-05T07:19:26.786Z,18.65
2023-04-05T07:21:57.181Z,24.02
2023-04-05T07:24:27.525Z,26.17
2023-04-05T07:26:58.353Z,29.55
2023-04-05T07:29:28.783Z,29.08
2023-04-05T07:31:59.176Z,29.17
2023-04-05T07:34:32.145Z,18.52
2023-04-05T07:37:03.044Z,24.42
2023-04-05T07:39:33.385Z,27.02
2023-04-05T07:42:03.743Z,20.73
2023-04-05T07:44:34.044Z,22.60
2023-04-05T07:47:04.369Z,23.35
2023-04-05T07:49:38.138Z,21.27
2023-04-05T07:52:09.136Z,21.00
2023-04-05T07:54:42.004Z,17.58
2023-04-05T07:57:12.321Z,19.15
2023-04-05T07:59:42.753Z,17.52
2023-04-05T08:02:14.916Z,18.52
2023-04-05T08:04:48.414Z,21.83
2023-04-05T08:07:18.778Z,14.75
2023-04-05T08:09:49.081Z,14.63
2023-04-05T08:12:19.396Z,17.25
2023-04-05T08:14:49.766Z,15.60
2023-04-05T08:17:20.438Z,20.30
2023-04-05T08:19:53.576Z,15.18
2023-04-05T08:22:24.046Z,16.90
2023-04-05T08:24:54.373Z,16.25
2023-04-05T08:27:24.805Z,15.27
2023-04-05T08:29:55.168Z,16.50
2023-04-05T08:32:25.689Z,14.25
2023-04-05T08:37:28.722Z,15.30
2023-04-05T08:39:59.173Z,12.48
2023-04-05T08:45:01.412Z,12.63
2023-04-05T08:47:32.192Z,17.85
2023-04-05T08:50:02.841Z,17.15
2023-04-05T08:52:38.228Z,19.52
2023-04-05T08:55:09.273Z,12.38
2023-04-05T08:57:41.226Z,17.20
2023-04-05T09:00:13.354Z,13.93
2023-04-05T09:02:44.478Z,14.95
2023-04-05T09:05:15.091Z,13.20
2023-04-05T09:07:48.194Z,16.05
2023-04-05T09:10:18.631Z,13.23
2023-04-05T09:12:49.230Z,14.50
2023-04-05T09:15:21.928Z,12.15
2023-04-05T09:17:53.062Z,12.55
2023-04-05T09:20:23.691Z,10.95
2023-04-05T09:22:56.673Z,14.50
2023-04-05T09:25:42.854Z,11.52
2023-04-05T09:28:13.345Z,15.45
2023-04-05T09:30:49.206Z,13.55
2023-04-05T09:33:22.813Z,16.23
2023-04-05T09:35:54.354Z,12.02
2023-04-05T09:38:45.519Z,10.55
2023-04-05T09:41:15.862Z,11.48
2023-04-05T09:43:46.324Z,13.13
2023-04-05T09:46:32.350Z,16.83
2023-04-05T09:49:04.146Z,12.45
2023-04-05T09:51:38.357Z,10.82
2023-04-05T09:54:12.269Z,14.05
2023-04-05T09:56:43.989Z,12.45
2023-04-05T09:59:15.234Z,12.75
2023-04-05T10:01:47.498Z,13.25
2023-04-05T10:04:18.252Z,35.22
2023-04-05T10:06:48.625Z,11.18
2023-04-05T10:09:23.625Z,14.23
2023-04-05T10:11:53.956Z,15.38
2023-04-05T10:14:24.312Z,19.52
2023-04-05T10:16:57.482Z,16.13
2023-04-05T10:19:31.425Z,11.45
2023-04-05T10:22:04.567Z,15.30
2023-04-05T10:24:43.887Z,11.75
2023-04-05T10:27:18.969Z,10.90
2023-04-05T10:29:52.730Z,12.38
2023-04-05T10:32:27.711Z,17.77
2023-04-05T10:35:01.090Z,13.18
2023-04-05T10:37:52.903Z,10.55
2023-04-05T10:40:26.342Z,12.57
2023-04-05T10:42:57.010Z,11.63
2023-04-05T10:45:27.667Z,12.35
2023-04-05T10:48:02.497Z,16.35
2023-04-05T10:50:33.273Z,10.32
2023-04-05T10:53:04.462Z,11.35
2023-04-05T10:55:37.970Z,12.15
2023-04-05T10:58:08.851Z,11.80
2023-04-05T11:00:40.756Z,13.82
2023-04-05T11:03:11.485Z,16.98
2023-04-05T11:05:41.903Z,14.80
2023-04-05T11:08:12.975Z,15.93
2023-04-05T11:10:46.510Z,17.90
2023-04-05T11:13:17.064Z,17.13
2023-04-05T11:15:47.420Z,17.75
2023-04-05T11:18:25.243Z,14.55
2023-04-05T11:20:56.354Z,13.55
2023-04-05T11:23:27.833Z,14.98
2023-04-05T11:26:01.286Z,14.77
2023-04-05T11:28:37.575Z,17.38
2023-04-05T11:31:16.934Z,19.77
2023-04-05T11:34:10.520Z,16.63
2023-04-05T11:36:42.268Z,18.98
2023-04-05T11:39:27.622Z,15.77
2023-04-05T11:42:02.789Z,14.88
2023-04-05T11:44:34.915Z,13.55
2023-04-05T11:47:07.937Z,13.75
2023-04-05T11:49:38.496Z,16.08
2023-04-05T11:52:18.834Z,16.95
2023-04-05T11:54:50.294Z,14.05
2023-04-05T11:57:26.030Z,17.35
2023-04-05T11:59:56.958Z,14.77
2023-04-05T12:02:27.310Z,17.35
2023-04-05T12:04:59.005Z,16.52
2023-04-05T12:07:37.142Z,12.25
2023-04-05T12:10:14.109Z,17.95
2023-04-05T12:12:49.273Z,13.00
2023-04-05T12:15:20.871Z,15.05
2023-04-05T12:17:54.202Z,16.40
2023-04-05T12:20:26.661Z,10.55
2023-04-05T12:22:57.951Z,14.15
2023-04-05T12:25:28.743Z,14.75
2023-04-05T12:30:36.721Z,14.68
2023-04-05T12:33:11.779Z,16.15
2023-04-05T12:35:43.055Z,12.63
2023-04-05T12:38:13.518Z,16.90
2023-04-05T12:40:45.915Z,12.93
2023-04-05T12:43:20.145Z,13.88
2023-04-05T12:45:54.667Z,14.93
2023-04-05T12:48:27.127Z,15.48
2023-04-05T12:50:57.596Z,14.10
2023-04-05T12:53:28.894Z,13.43
2023-04-05T12:56:00.169Z,17.60
2023-04-05T12:58:36.618Z,12.82
2023-04-05T13:01:10.775Z,12.98
2023-04-05T13:03:41.196Z,14.55
2023-04-05T13:06:11.625Z,15.18
2023-04-05T13:08:42.064Z,15.48
2023-04-05T13:11:12.419Z,14.80
2023-04-05T13:13:42.747Z,15.93
2023-04-05T13:16:15.814Z,15.60
2023-04-05T13:18:46.173Z,16.65
2023-04-05T13:21:16.628Z,14.77
2023-04-05T13:23:47.030Z,13.32
2023-04-05T13:26:17.388Z,13.57
2023-04-05T13:28:47.689Z,18.42
2023-04-05T13:31:20.717Z,15.32
2023-04-05T13:33:51.094Z,16.63
2023-04-05T13:36:21.436Z,16.50
2023-04-05T13:38:51.746Z,13.40
2023-04-05T13:41:22.090Z,18.17
2023-04-05T13:43:52.397Z,16.58
2023-04-05T13:46:25.604Z,17.25
2023-04-05T13:48:55.986Z,15.68
2023-04-05T13:51:26.980Z,17.90
2023-04-05T13:53:57.321Z,16.58
2023-04-05T13:56:27.808Z,15.68
2023-04-05T13:58:58.202Z,16.70
2023-04-05T14:01:31.257Z,24.52
2023-04-05T14:04:01.662Z,19.95
2023-04-05T14:06:32.173Z,23.17
2023-04-05T14:09:02.516Z,19.42
2023-04-05T14:11:32.923Z,17.25
2023-04-05T14:14:03.487Z,22.23
2023-04-05T14:16:38.412Z,23.30
2023-04-05T14:19:09.042Z,19.38
2023-04-05T14:21:39.521Z,17.40
2023-04-05T14:24:10.143Z,18.88
2023-04-05T14:26:40.746Z,15.23
2023-04-05T14:29:11.137Z,16.80
2023-04-05T14:31:44.304Z,18.45
2023-04-05T14:34:14.806Z,15.63
2023-04-05T14:36:45.249Z,15.77
2023-04-05T14:39:15.662Z,21.35
2023-04-05T14:41:50.333Z,15.15
2023-04-05T14:44:20.675Z,17.95
2023-04-05T14:46:53.741Z,16.95
2023-04-05T14:49:24.225Z,15.90
2023-04-05T14:51:54.623Z,15.88
2023-04-05T14:54:25.186Z,15.60
2023-04-05T14:56:55.617Z,14.88
2023-04-05T14:59:26.520Z,14.77
2023-04-05T15:01:59.630Z,18.88
2023-04-05T15:04:30.082Z,15.27
2023-04-05T15:07:00.592Z,18.60
2023-04-05T15:09:30.992Z,18.65
2023-04-05T15:12:01.420Z,14.57
2023-04-05T15:14:32.608Z,20.33
2023-04-05T15:17:05.874Z,14.90
2023-04-05T15:19:36.364Z,15.60
2023-04-05T15:22:06.955Z,15.30
2023-04-05T15:24:37.612Z,12.73
2023-04-05T15:27:08.353Z,13.45
2023-04-05T15:29:38.758Z,15.07
2023-04-05T15:32:11.852Z,15.15
2023-04-05T15:34:42.232Z,17.60
2023-04-05T15:37:13.635Z,15.57
2023-04-05T15:39:44.028Z,14.70
2023-04-05T15:42:15.835Z,15.13
2023-04-05T15:44:46.351Z,16.40
2023-04-05T15:47:19.451Z,16.38
2023-04-05T15:49:51.534Z,15.20
2023-04-05T15:52:21.975Z,15.05
2023-04-05T15:54:52.339Z,16.23
2023-04-05T15:57:24.432Z,17.80
2023-04-05T15:59:54.903Z,19.80
2023-04-05T16:02:28.385Z,17.30
2023-04-05T16:04:59.020Z,13.85
2023-04-05T16:07:29.473Z,18.10
2023-04-05T16:09:59.921Z,13.85
2023-04-05T16:12:30.797Z,15.52
2023-04-05T16:17:33.936Z,19.33
2023-04-05T16:20:04.764Z,15.50
2023-04-05T16:22:35.281Z,15.75
2023-04-05T16:25:05.779Z,13.65
2023-04-05T16:27:37.721Z,12.95
2023-04-05T16:30:08.747Z,14.90
2023-04-05T16:32:41.938Z,15.88
2023-04-05T16:35:12.726Z,19.73
2023-04-05T16:37:43.180Z,14.30
2023-04-05T16:40:14.501Z,16.92
2023-04-05T16:42:44.930Z,16.13
2023-04-05T16:45:15.691Z,13.52
2023-04-05T16:47:48.745Z,16.20
2023-04-05T16:50:19.254Z,18.35
2023-04-05T16:52:49.787Z,17.15
2023-04-05T16:55:20.262Z,16.00
2023-04-05T16:57:50.712Z,18.88
2023-04-05T17:00:21.672Z,27.25
2023-04-05T17:05:24.990Z,19.45
2023-04-05T17:07:56.031Z,15.27
2023-04-05T17:10:26.496Z,12.00
2023-04-05T17:12:57.519Z,19.67
2023-04-05T17:15:28.224Z,14.75
2023-04-05T17:17:58.850Z,14.20
2023-04-05T17:20:31.905Z,13.45
2023-04-05T17:23:02.293Z,14.80
2023-04-05T17:25:32.711Z,13.35
2023-04-05T17:28:03.432Z,17.00
2023-04-05T17:30:34.055Z,14.88
2023-04-05T17:33:04.761Z,15.85
2023-04-05T17:35:38.263Z,15.77
2023-04-05T17:38:08.787Z,14.85
2023-04-05T17:40:39.154Z,17.73
2023-04-05T17:43:09.614Z,14.88
2023-04-05T17:45:39.942Z,21.15
2023-04-05T17:48:10.526Z,16.23
2023-04-05T17:50:43.912Z,22.83
2023-04-05T17:53:14.337Z,23.00
2023-04-05T17:55:44.726Z,20.45
2023-04-05T17:58:15.232Z,18.40
2023-04-05T18:00:45.722Z,19.73
2023-04-05T18:03:18.004Z,19.83
2023-04-05T18:05:52.800Z,18.33
2023-04-05T18:08:23.249Z,20.80
2023-04-05T18:10:58.422Z,23.33
2023-04-05T18:13:29.148Z,29.25
2023-04-05T18:16:00.043Z,24.67
2023-04-05T18:21:04.750Z,20.50
2023-04-05T18:23:35.158Z,19.70
2023-04-05T18:26:09.879Z,19.17
2023-04-05T18:28:40.326Z,19.52
2023-04-05T18:31:12.098Z,21.60
2023-04-05T18:33:42.498Z,20.55
2023-04-05T18:36:16.822Z,22.55
2023-04-05T18:38:47.207Z,22.17
2023-04-05T18:41:17.686Z,21.58
2023-04-05T18:43:48.275Z,21.35
2023-04-05T18:46:18.988Z,20.52
2023-04-05T18:48:54.594Z,24.45
2023-04-05T18:51:28.661Z,26.60
2023-04-05T18:53:59.092Z,28.92
2023-04-05T18:56:30.349Z,28.13
2023-04-05T18:59:00.872Z,25.27
2023-04-05T19:01:31.705Z,28.13
2023-04-05T19:04:02.195Z,24.23
2023-04-05T19:06:35.302Z,28.48
2023-04-05T19:09:06.428Z,33.70
2023-04-05T19:11:37.005Z,33.38
2023-04-05T19:14:07.455Z,31.38
2023-04-05T19:16:37.912Z,25.98
2023-04-05T19:19:09.300Z,27.38
2023-04-05T19:21:42.457Z,25.75
2023-04-05T19:24:15.000Z,25.23
2023-04-05T19:26:46.078Z,22.92
2023-04-05T19:31:46.825Z,24.92
2023-04-05T19:34:17.358Z,27.05
2023-04-05T19:36:50.545Z,25.98
2023-04-05T19:39:25.453Z,27.05
2023-04-05T19:41:56.194Z,25.70
2023-04-05T19:44:39.490Z,26.08
2023-04-05T19:47:11.776Z,25.23
2023-04-05T19:49:42.743Z,27.98
2023-04-05T19:52:17.601Z,26.70
2023-04-05T19:54:48.051Z,24.77
2023-04-05T19:57:20.173Z,24.58
2023-04-05T19:59:51.343Z,28.15
2023-04-05T20:02:28.407Z,32.25
2023-04-05T20:04:58.928Z,24.70
2023-04-05T20:07:32.018Z,31.45
2023-04-05T20:10:02.457Z,27.08
2023-04-05T20:12:32.813Z,37.88
2023-04-05T20:15:03.493Z,30.27
2023-04-05T20:17:33.887Z,26.08
2023-04-05T20:20:04.456Z,26.25
2023-04-05T20:22:37.491Z,23.00
2023-04-05T20:25:15.371Z,23.83
2023-04-05T20:27:45.913Z,27.27
2023-04-05T20:30:17.726Z,26.38
2023-04-05T20:32:48.138Z,25.58
2023-04-05T20:35:34.003Z,25.60
2023-04-05T20:38:07.016Z,24.02
2023-04-05T20:40:37.560Z,24.63
2023-04-05T20:43:08.034Z,26.08
2023-04-05T20:45:38.447Z,25.63
2023-04-05T20:48:09.218Z,25.38
2023-04-05T20:50:39.590Z,22.38
2023-04-05T20:53:12.530Z,22.90
2023-04-05T20:55:42.964Z,24.02
2023-04-05T20:58:13.364Z,22.65
2023-04-05T21:00:44.272Z,21.67
2023-04-05T21:03:15.081Z,24.17
2023-04-05T21:05:45.919Z,26.00
2023-04-05T21:08:19.160Z,23.25
2023-04-05T21:10:49.602Z,23.63
2023-04-05T21:13:19.966Z,27.13
2023-04-05T21:15:50.651Z,21.27
2023-04-05T21:18:21.169Z,22.73
2023-04-05T21:20:53.386Z,22.00
2023-04-05T21:23:27.205Z,25.15
2023-04-05T21:25:58.051Z,20.08
2023-04-05T21:28:29.460Z,22.90
2023-04-05T21:31:00.046Z,22.60
2023-04-05T21:33:30.716Z,21.15
2023-04-05T21:36:01.191Z,25.60
2023-04-05T21:38:34.186Z,19.70
2023-04-05T21:41:04.832Z,20.23
2023-04-05T21:43:35.191Z,21.65
2023-04-05T21:46:05.705Z,21.30
2023-04-05T21:48:36.224Z,22.30
2023-04-05T21:51:06.929Z,20.77
2023-04-05T21:53:39.913Z,20.13
2023-04-05T21:56:10.645Z,17.45
2023-04-05T21:58:42.429Z,22.60
2023-04-05T22:01:12.834Z,19.25
2023-04-05T22:03:43.212Z,19.25
2023-04-05T22:06:13.977Z,20.08
2023-04-05T22:08:46.950Z,18.67
2023-04-05T22:11:17.619Z,18.75
2023-04-05T22:13:48.046Z,20.60
2023-04-05T22:16:18.509Z,19.35
2023-04-05T22:18:49.194Z,18.58
2023-04-05T22:21:19.606Z,19.67
2023-04-05T22:23:52.519Z,19.33
2023-04-05T22:26:22.923Z,18.27
2023-04-05T22:28:53.293Z,19.27
2023-04-05T22:31:23.707Z,20.30
2023-04-05T22:33:54.136Z,16.58
2023-04-05T22:36:24.552Z,20.88
2023-04-05T22:38:57.514Z,20.83
2023-04-05T22:41:27.983Z,19.67
2023-04-05T22:43:58.348Z,20.25
2023-04-05T22:46:28.743Z,19.70
2023-04-05T22:48:59.086Z,21.92
2023-04-05T22:51:29.489Z,19.23
2023-04-05T22:54:02.499Z,22.13
2023-04-05T22:56:32.923Z,19.33
2023-04-05T22:59:03.290Z,22.42
2023-04-05T23:01:34.064Z,20.13
2023-04-05T23:04:04.443Z,19.75
2023-04-05T23:06:34.797Z,20.85
2023-04-05T23:09:08.564Z,20.38
2023-04-05T23:11:39.090Z,20.35
2023-04-05T23:14:09.605Z,18.45
2023-04-05T23:16:40.768Z,19.25
2023-04-05T23:19:11.337Z,16.63
2023-04-05T23:21:41.912Z,22.95
2023-04-05T23:24:14.913Z,22.52
2023-04-05T23:26:45.274Z,24.58
2023-04-05T23:29:15.610Z,21.48
2023-04-05T23:31:46.241Z,19.33
2023-04-05T23:34:16.654Z,22.98
2023-04-05T23:36:47.295Z,19.85
2023-04-05T23:39:20.281Z,22.48
2023-04-05T23:41:50.719Z,22.38
2023-04-05T23:44:21.084Z,19.52
2023-04-05T23:46:51.538Z,19.15
2023-04-05T23:49:23.140Z,19.63
2023-04-05T23:51:53.864Z,19.17
2023-04-05T23:54:26.838Z,23.92
2023-04-05T23:56:57.710Z,20.48
2023-04-05T23:59:28.075Z,18.63
